MUFL weather

Florida Airport
Florida, Camag├╝ey, Cuba

Public forecast

Using degrees Celsius for public forecast. Weather courtesy of forecast.io.

METAR (pilot weather report)

Closest report is Ignacio Agramonte International Airport, 20.4 nm (37.8 km) ESE. Retrieved 2019/07/22 08:50 UTC (26 minutes ago):

MUCM 220850Z 11003KT 9000 NSC 23/23 Q1015

TAF (pilot weather forecast)

Closest forecast is Ignacio Agramonte International Airport, 20.4 nm (37.8 km) ESE. Retrieved 2019/07/22 06:03 UTC (3 hours ago):

TAF TAF MUCM 220500Z 2206/2306 VRB03KT 9000 SCT020 BECMG 2215/2217 04010KT BECMG 2301/2303 VRB03KT